Time;durP1;ratioP1;P1;durP2;ratioP2;P2;SDS_P1;SDS_P2;PMS_P1;PMS_P2;Temp;Humidity;BMP_temperature;BMP_pressure;BME280_temperature;BME280_humidity;BME280_pressure;Samples;Min_cycle;Max_cycle;Signal;HPM_P1;HPM_P2
2023/02/11 00:00:40;;;;;;;45.50;29.63;;;;;;;8.23;77.76;103260.63;5064026;28;20111;-66
2023/02/11 00:03:08;;;;;;;47.92;31.42;;;;;;;8.25;78.14;103258.50;5078087;28;20048;-65
2023/02/11 00:05:35;;;;;;;48.30;30.02;;;;;;;8.17;78.00;103256.09;5077686;28;20056;-65
2023/02/11 00:08:03;;;;;;;45.45;29.75;;;;;;;8.35;77.92;103261.50;5076816;28;20059;-65
2023/02/11 00:10:30;;;;;;;41.58;29.70;;;;;;;8.05;78.67;103252.50;5079707;28;20044;-65
2023/02/11 00:12:57;;;;;;;48.95;31.98;;;;;;;8.18;78.23;103248.66;5077893;28;20060;-65
2023/02/11 00:15:25;;;;;;;48.15;31.30;;;;;;;8.19;78.00;103247.63;5073990;28;20059;-65
2023/02/11 00:17:52;;;;;;;43.60;30.35;;;;;;;8.06;78.38;103239.56;5075922;28;20056;-65
2023/02/11 00:20:19;;;;;;;45.25;31.92;;;;;;;7.87;79.23;103238.81;5076382;28;20051;-68
2023/02/11 00:22:47;;;;;;;47.15;32.28;;;;;;;7.83;79.53;103240.34;5058022;28;20542;-65
2023/02/11 00:25:14;;;;;;;45.58;30.95;;;;;;;8.00;79.01;103249.63;5059608;28;20650;-65
2023/02/11 00:27:41;;;;;;;46.80;32.00;;;;;;;7.93;79.16;103244.19;5077835;28;20056;-66
2023/02/11 00:30:09;;;;;;;52.28;33.92;;;;;;;7.57;80.18;103238.84;5078408;28;20049;-65
2023/02/11 00:32:37;;;;;;;50.80;32.65;;;;;;;7.43;80.91;103245.56;5068158;28;20061;-67
2023/02/11 00:35:05;;;;;;;53.60;33.97;;;;;;;7.64;81.09;103238.72;5056766;28;20049;-65
2023/02/11 00:37:35;;;;;;;50.95;32.65;;;;;;;7.68;80.51;103234.47;5077912;28;20547;-64
2023/02/11 00:40:04;;;;;;;52.22;33.05;;;;;;;7.65;80.95;103240.44;5077851;28;20380;-65
2023/02/11 00:42:34;;;;;;;45.65;32.67;;;;;;;7.80;79.83;103233.44;5076953;28;20052;-66
2023/02/11 00:45:02;;;;;;;52.60;32.58;;;;;;;7.98;79.58;103246.25;5077509;28;20049;-65
2023/02/11 00:47:29;;;;;;;48.13;33.05;;;;;;;7.84;78.93;103236.56;5077112;28;20056;-65
2023/02/11 00:49:58;;;;;;;50.13;32.55;;;;;;;7.46;80.52;103236.88;5065276;28;20048;-65
2023/02/11 00:52:27;;;;;;;51.67;33.42;;;;;;;7.44;81.48;103238.19;5074481;28;20068;-66
2023/02/11 00:54:54;;;;;;;47.58;32.50;;;;;;;7.63;80.83;103240.66;5077332;28;20052;-65
2023/02/11 00:57:21;;;;;;;52.90;33.40;;;;;;;7.77;79.85;103236.66;5075871;28;20052;-66
2023/02/11 00:59:49;;;;;;;43.17;31.33;;;;;;;7.68;79.62;103231.72;5091373;28;20056;-65
2023/02/11 01:02:17;;;;;;;49.50;32.42;;;;;;;7.63;80.38;103229.69;5077495;28;20052;-65
2023/02/11 01:04:45;;;;;;;50.08;32.47;;;;;;;7.76;79.48;103228.63;5077320;28;20059;-65
2023/02/11 01:07:12;;;;;;;48.55;32.58;;;;;;;7.72;79.08;103225.53;5044682;28;20059;-65
2023/02/11 01:09:40;;;;;;;47.95;32.90;;;;;;;7.53;79.61;103229.38;5056013;28;20163;-65
2023/02/11 01:12:07;;;;;;;48.08;32.42;;;;;;;7.57;80.07;103218.78;5072070;28;20051;-64
2023/02/11 01:14:34;;;;;;;46.80;31.85;;;;;;;7.80;79.55;103218.88;5076696;28;20518;-66
2023/02/11 01:17:04;;;;;;;53.63;33.50;;;;;;;7.72;79.43;103209.06;5076864;28;20053;-74
2023/02/11 01:19:32;;;;;;;52.55;33.33;;;;;;;7.53;79.56;103215.69;5059364;28;20052;-75
2023/02/11 01:21:59;;;;;;;53.28;33.13;;;;;;;7.70;79.64;103210.38;5077129;28;20040;-74
2023/02/11 01:24:27;;;;;;;54.53;33.67;;;;;;;7.59;79.92;103214.75;5059751;28;20060;-75
2023/02/11 01:26:54;;;;;;;46.63;32.85;;;;;;;7.64;79.41;103212.16;5053374;28;20064;-75
2023/02/11 01:29:23;;;;;;;50.23;32.83;;;;;;;7.76;79.26;103215.75;5075404;28;20432;-74
2023/02/11 01:31:54;;;;;;;48.92;32.90;;;;;;;7.63;79.11;103209.66;5075122;28;20407;-74
2023/02/11 01:34:21;;;;;;;48.55;32.25;;;;;;;7.57;79.76;103213.31;5058908;28;20056;-74
2023/02/11 01:36:49;;;;;;;45.25;31.48;;;;;;;7.58;79.61;103204.03;5058358;28;20041;-74
2023/02/11 01:39:16;;;;;;;46.90;31.80;;;;;;;7.63;79.29;103201.41;5059006;28;20063;-74
2023/02/11 01:41:45;;;;;;;49.55;33.05;;;;;;;7.53;79.42;103204.72;5068659;28;20036;-74
2023/02/11 01:44:32;;;;;;;47.20;31.65;;;;;;;7.62;79.40;103196.97;5095407;28;20052;-75
2023/02/11 01:47:00;;;;;;;46.45;31.80;;;;;;;7.71;78.73;103206.56;5075192;28;20055;-75
2023/02/11 01:49:30;;;;;;;44.95;31.48;;;;;;;7.62;78.79;103203.31;5095433;28;20496;-75
2023/02/11 01:52:01;;;;;;;49.47;32.58;;;;;;;7.58;79.20;103206.78;5081766;28;20053;-75
2023/02/11 01:57:21;;;;;;;48.13;32.60;;;;;;;7.39;79.68;103213.38;5063718;28;20052;-74
2023/02/11 02:00:20;;;;;;;46.95;33.00;;;;;;;7.36;80.78;103213.81;5038768;28;20057;-73
2023/02/11 02:03:10;;;;;;;44.60;30.85;;;;;;;7.58;79.61;103210.31;5074962;28;20044;-74
2023/02/11 02:05:50;;;;;;;47.25;32.85;;;;;;;7.52;79.17;103208.53;5040637;28;20538;-75
2023/02/11 02:08:28;;;;;;;49.22;32.60;;;;;;;7.60;79.52;103201.91;5095554;28;20411;-74
2023/02/11 02:10:57;;;;;;;53.30;33.38;;;;;;;7.77;78.61;103203.75;5091368;28;20108;-75
2023/02/11 02:13:24;;;;;;;54.97;34.10;;;;;;;7.66;78.68;103198.19;5079045;28;20048;-74
2023/02/11 02:15:54;;;;;;;48.35;31.95;;;;;;;7.81;78.33;103204.91;5061277;28;20060;-75
2023/02/11 02:18:34;;;;;;;;;;;;;;;7.73;77.99;103196.19;5063605;28;20047;-74
2023/02/11 02:21:22;;;;;;;48.33;31.30;;;;;;;7.84;78.54;103192.66;5091283;28;19927;-74
2023/02/11 02:24:14;;;;;;;50.47;32.05;;;;;;;7.57;78.62;103194.94;5058327;28;20828;-75
2023/02/11 02:27:19;;;;;;;52.80;32.47;;;;;;;7.46;79.42;103192.19;5080455;28;20048;-74
2023/02/11 02:29:52;;;;;;;52.80;33.75;;;;;;;7.45;79.34;103194.06;5098649;28;20044;-73
2023/02/11 02:32:20;;;;;;;48.47;31.85;;;;;;;7.59;79.11;103191.97;5071923;28;20728;-75
2023/02/11 02:35:00;;;;;;;48.55;32.33;;;;;;;7.38;79.12;103184.25;5058908;28;20055;-75
2023/02/11 02:37:37;;;;;;;47.42;32.03;;;;;;;7.15;80.41;103175.97;5046956;28;20049;-74
2023/02/11 02:40:10;;;;;;;52.88;32.95;;;;;;;6.99;81.16;103174.66;5056481;28;20061;-74
2023/02/11 02:42:39;;;;;;;52.40;32.75;;;;;;;7.12;81.07;103182.72;5059251;28;20055;-76
2023/02/11 02:45:08;;;;;;;46.33;32.45;;;;;;;7.20;81.08;103176.91;5075151;28;20040;-74
2023/02/11 02:47:35;;;;;;;50.43;33.20;;;;;;;7.16;80.51;103178.47;5074088;28;20052;-74
2023/02/11 02:50:04;;;;;;;48.92;32.42;;;;;;;7.10;80.70;103181.25;5054668;28;20288;-74
2023/02/11 02:52:54;;;;;;;49.97;31.17;;;;;;;7.19;80.49;103178.00;5074748;28;20048;-75
2023/02/11 02:56:00;;;;;;;48.03;31.63;;;;;;;7.48;79.54;103174.41;5075306;28;20056;-73
2023/02/11 02:58:41;;;;;;;50.25;31.63;;;;;;;7.16;79.86;103181.19;5054772;28;20080;-74
2023/02/11 03:01:16;;;;;;;49.78;30.50;;;;;;;7.14;80.21;103177.00;5046395;28;20044;-74
2023/02/11 03:04:02;;;;;;;;;;;;;;;6.96;80.71;103174.31;5073882;28;20067;-74
2023/02/11 03:06:43;;;;;;;43.88;28.92;;;;;;;7.24;80.78;103171.81;5073208;28;19920;-75
2023/02/11 03:09:36;;;;;;;46.78;31.20;;;;;;;7.01;80.44;103168.97;5094680;28;20060;-74
2023/02/11 03:12:05;;;;;;;44.88;31.42;;;;;;;6.99;80.64;103173.84;5086667;28;20055;-74
2023/02/11 03:14:32;;;;;;;47.58;31.67;;;;;;;6.99;80.94;103166.44;5095236;28;20070;-74
2023/02/11 03:17:01;;;;;;;45.65;30.38;;;;;;;6.97;80.49;103165.84;5054386;28;20048;-74
2023/02/11 03:19:55;;;;;;;46.28;30.85;;;;;;;6.90;80.96;103167.84;5097889;28;20511;-75
2023/02/11 03:22:29;;;;;;;48.20;31.05;;;;;;;6.94;80.75;103168.22;5073882;28;20060;-74
2023/02/11 03:24:57;;;;;;;50.67;31.08;;;;;;;6.96;80.62;103174.31;5058126;28;20059;-74
2023/02/11 03:27:32;;;;;;;46.80;31.98;;;;;;;7.01;80.64;103166.22;5059583;28;20392;-74
2023/02/11 03:30:13;;;;;;;48.53;31.52;;;;;;;7.01;80.71;103160.75;5077960;28;20431;-74
2023/02/11 03:32:47;;;;;;;47.17;31.73;;;;;;;7.06;80.13;103161.72;5061199;28;20041;-74
2023/02/11 03:35:47;;;;;;;48.70;33.00;;;;;;;6.89;80.79;103163.41;5077148;28;20053;-74
2023/02/11 03:38:25;;;;;;;48.88;31.40;;;;;;;7.03;80.86;103164.06;5090254;28;20067;-74
2023/02/11 03:40:53;;;;;;;46.78;31.42;;;;;;;7.09;80.18;103160.41;5064794;28;20048;-74
2023/02/11 03:43:24;;;;;;;54.55;32.50;;;;;;;7.17;80.21;103154.59;5096607;28;20487;-75
2023/02/11 03:45:52;;;;;;;47.88;32.38;;;;;;;7.14;80.04;103155.06;5092409;28;20123;-74
2023/02/11 03:48:30;;;;;;;50.25;32.50;;;;;;;7.04;80.05;103152.06;5096237;28;20055;-75
2023/02/11 03:51:00;;;;;;;48.00;31.60;;;;;;;7.02;80.20;103157.78;5093432;28;20144;-76
2023/02/11 03:53:27;;;;;;;46.17;31.95;;;;;;;6.85;80.85;103160.28;5096755;28;20050;-74
2023/02/11 03:55:56;;;;;;;47.60;32.28;;;;;;;6.96;81.07;103155.13;5093095;28;20047;-74
2023/02/11 03:58:25;;;;;;;47.38;32.00;;;;;;;7.08;80.66;103158.75;5080098;28;20063;-74
2023/02/11 04:00:53;;;;;;;48.92;32.13;;;;;;;7.12;79.93;103152.56;5080759;28;20056;-74
2023/02/11 04:03:20;;;;;;;45.50;31.25;;;;;;;6.95;80.16;103148.81;5081007;28;20048;-74
2023/02/11 04:05:47;;;;;;;46.85;30.98;;;;;;;6.97;80.60;103148.56;5080685;28;20055;-74
2023/02/11 04:08:15;;;;;;;51.47;31.63;;;;;;;6.98;80.64;103148.34;5096375;28;20059;-74
2023/02/11 04:10:42;;;;;;;51.20;30.67;;;;;;;7.00;80.45;103159.06;5095190;28;20049;-74
2023/02/11 04:13:10;;;;;;;46.92;31.65;;;;;;;6.83;80.29;103161.59;5086360;28;20866;-74
2023/02/11 04:15:37;;;;;;;48.20;31.15;;;;;;;6.94;80.65;103162.72;5062243;28;20715;-75
2023/02/11 04:18:04;;;;;;;47.78;30.63;;;;;;;6.98;79.75;103167.50;5091983;28;20060;-75
2023/02/11 04:20:31;;;;;;;46.08;30.50;;;;;;;7.01;79.95;103171.72;5095624;28;20058;-74
2023/02/11 04:22:59;;;;;;;50.30;30.73;;;;;;;6.84;80.28;103177.81;5091280;28;20090;-75
2023/02/11 04:25:26;;;;;;;41.33;29.50;;;;;;;6.93;80.34;103170.09;5095857;28;20629;-74
2023/02/11 04:27:54;;;;;;;44.78;30.33;;;;;;;6.91;80.52;103174.13;5090166;28;20044;-74
2023/02/11 04:30:21;;;;;;;47.35;29.30;;;;;;;6.82;80.85;103176.34;5083124;28;20041;-75
2023/02/11 04:32:49;;;;;;;49.38;30.73;;;;;;;6.72;80.87;103182.38;5079172;28;20060;-74
2023/02/11 04:35:16;;;;;;;49.47;31.05;;;;;;;6.64;81.37;103176.34;5076547;28;20040;-75
2023/02/11 04:37:43;;;;;;;46.95;30.33;;;;;;;6.73;81.07;103169.50;5060107;28;20052;-75
2023/02/11 04:40:11;;;;;;;49.15;30.77;;;;;;;6.54;81.25;103171.41;5077308;28;20040;-75
2023/02/11 04:42:39;;;;;;;47.17;30.92;;;;;;;6.32;82.16;103175.63;5081115;28;20045;-74
2023/02/11 04:45:06;;;;;;;46.40;30.83;;;;;;;6.55;82.38;103180.47;5076510;28;20404;-74
2023/02/11 04:47:35;;;;;;;45.63;30.30;;;;;;;6.58;81.61;103188.22;5075609;28;20048;-74
2023/02/11 04:50:02;;;;;;;46.60;31.85;;;;;;;6.54;81.22;103186.97;5078148;28;20064;-75
2023/02/11 04:52:30;;;;;;;43.65;29.15;;;;;;;6.60;81.61;103175.97;5077606;28;20055;-74
2023/02/11 04:54:57;;;;;;;49.35;30.00;;;;;;;6.81;81.32;103182.91;5060026;28;20048;-75
2023/02/11 04:57:24;;;;;;;45.17;30.55;;;;;;;6.56;80.70;103180.22;5059106;28;20515;-75
2023/02/11 04:59:51;;;;;;;44.05;29.73;;;;;;;6.48;81.67;103174.22;5043532;28;20058;-75
2023/02/11 05:02:19;;;;;;;46.45;30.42;;;;;;;6.48;81.09;103163.25;5077386;28;20040;-75
2023/02/11 05:04:46;;;;;;;49.55;31.60;;;;;;;6.48;81.77;103166.84;5076945;28;20059;-74
2023/02/11 05:07:14;;;;;;;47.95;31.55;;;;;;;6.40;81.94;103166.28;5078925;28;20044;-73
2023/02/11 05:09:41;;;;;;;48.67;31.48;;;;;;;6.29;82.18;103169.78;5098098;28;20040;-75
2023/02/11 05:12:08;;;;;;;42.97;29.42;;;;;;;6.37;81.97;103153.88;5082740;28;20055;-74
2023/02/11 05:14:36;;;;;;;45.03;30.08;;;;;;;6.52;81.86;103153.53;5096019;28;20068;-74
2023/02/11 05:17:03;;;;;;;48.80;30.42;;;;;;;6.50;81.03;103155.66;5081388;28;20413;-74
2023/02/11 05:19:30;;;;;;;46.42;30.67;;;;;;;6.22;82.10;103152.56;5058858;28;20466;-75
2023/02/11 05:21:58;;;;;;;42.30;29.92;;;;;;;6.28;82.53;103155.25;5060013;28;20045;-75
2023/02/11 05:24:31;;;;;;;48.05;31.00;;;;;;;6.21;82.80;103167.31;5056984;28;20053;-75
2023/02/11 05:26:58;;;;;;;50.03;30.58;;;;;;;6.31;82.42;103153.97;5056148;28;20362;-75
2023/02/11 05:29:26;;;;;;;45.60;29.98;;;;;;;6.35;82.25;103150.53;5098248;28;20055;-74
2023/02/11 05:31:53;;;;;;;44.33;29.88;;;;;;;6.48;81.47;103150.41;5085894;28;20044;-75
2023/02/11 05:34:21;;;;;;;46.45;30.27;;;;;;;6.54;81.17;103152.22;5098979;28;20067;-74
2023/02/11 05:36:48;;;;;;;44.03;29.80;;;;;;;6.48;80.80;103150.41;5084685;28;20052;-74
2023/02/11 05:39:16;;;;;;;43.08;28.48;;;;;;;6.53;80.94;103150.56;5065121;28;20060;-75
2023/02/11 05:41:43;;;;;;;45.35;29.85;;;;;;;6.50;80.83;103153.75;5071057;28;20056;-74
2023/02/11 05:44:11;;;;;;;41.67;28.98;;;;;;;6.36;81.12;103149.47;5078592;28;20051;-74
2023/02/11 05:46:38;;;;;;;43.38;29.55;;;;;;;6.25;81.83;103149.38;5059935;28;20067;-74
2023/02/11 05:49:05;;;;;;;47.42;30.45;;;;;;;6.26;82.07;103148.34;5077432;28;20063;-75
2023/02/11 05:51:33;;;;;;;44.42;30.13;;;;;;;6.34;81.79;103142.56;5080799;28;20052;-75
2023/02/11 05:54:00;;;;;;;47.35;29.52;;;;;;;6.35;81.55;103145.06;5081763;28;20057;-73
2023/02/11 05:56:28;;;;;;;46.53;29.63;;;;;;;6.31;81.54;103145.75;5056824;28;20048;-74
2023/02/11 05:58:57;;;;;;;44.97;30.77;;;;;;;6.28;81.69;103149.78;5078255;28;20053;-74
2023/02/11 06:01:25;;;;;;;45.00;29.52;;;;;;;6.34;81.44;103143.41;5076795;28;20052;-74
2023/02/11 06:03:53;;;;;;;45.05;29.23;;;;;;;6.37;81.62;103150.31;5077627;28;20048;-74
2023/02/11 06:06:21;;;;;;;42.33;29.17;;;;;;;6.37;81.30;103153.03;5076830;28;20051;-74
2023/02/11 06:08:48;;;;;;;46.15;29.88;;;;;;;6.59;80.78;103152.38;5078107;28;20543;-73
2023/02/11 06:11:16;;;;;;;44.83;29.65;;;;;;;6.56;80.87;103139.16;5075324;28;20411;-74
2023/02/11 06:13:43;;;;;;;44.00;28.73;;;;;;;6.66;80.20;103150.41;5057065;28;20057;-74
2023/02/11 06:16:18;;;;;;;45.95;29.67;;;;;;;6.32;80.94;103142.78;5063099;28;20044;-65
2023/02/11 06:18:54;;;;;;;46.72;30.33;;;;;;;6.28;81.36;103146.19;5053539;28;20056;-65
2023/02/11 06:21:22;;;;;;;47.35;29.83;;;;;;;6.32;81.12;103142.78;5073220;28;20044;-66
2023/02/11 06:23:56;;;;;;;43.00;29.38;;;;;;;6.18;81.69;103143.13;5075836;28;20488;-66
2023/02/11 06:26:24;;;;;;;46.35;28.60;;;;;;;6.25;82.56;103163.06;5074069;28;20056;-66
2023/02/11 06:28:51;;;;;;;45.88;28.45;;;;;;;6.30;81.85;103166.81;5072572;28;20487;-66
2023/02/11 06:31:19;;;;;;;42.67;29.08;;;;;;;6.26;81.60;103162.03;5071209;28;20040;-65
2023/02/11 06:33:46;;;;;;;40.72;28.73;;;;;;;6.30;81.37;103158.59;5074660;28;20060;-66
2023/02/11 06:36:18;;;;;;;45.10;28.63;;;;;;;6.46;81.02;103158.00;5057293;28;20052;-66
2023/02/11 06:38:46;;;;;;;43.72;28.40;;;;;;;6.23;81.39;103163.28;5062951;28;20041;-65
2023/02/11 06:41:15;;;;;;;48.03;28.30;;;;;;;6.21;81.84;103165.41;5073310;28;20044;-66
2023/02/11 06:43:49;;;;;;;44.08;29.70;;;;;;;6.33;81.16;103163.59;5075436;28;20048;-66
2023/02/11 06:46:16;;;;;;;45.83;28.73;;;;;;;6.51;80.49;103174.59;5068768;28;20055;-65
2023/02/11 06:48:44;;;;;;;46.17;30.20;;;;;;;6.34;80.63;103169.94;5070329;28;20531;-66
2023/02/11 06:51:12;;;;;;;41.35;28.40;;;;;;;6.39;80.58;103170.94;5045275;28;20059;-65
2023/02/11 06:53:42;;;;;;;41.70;28.05;;;;;;;6.01;81.41;103177.59;5073812;28;20484;-65
2023/02/11 06:56:14;;;;;;;41.50;28.08;;;;;;;5.95;82.43;103176.59;5075022;28;20513;-65
2023/02/11 06:58:42;;;;;;;43.20;27.27;;;;;;;6.12;82.22;103172.22;5075736;28;20496;-65
2023/02/11 07:01:12;;;;;;;42.72;28.67;;;;;;;5.95;82.55;103182.06;5074449;28;20055;-65
2023/02/11 07:03:45;;;;;;;42.03;28.77;;;;;;;5.94;82.30;103179.56;5065745;28;20056;-65
2023/02/11 07:06:19;;;;;;;43.97;29.98;;;;;;;5.84;82.27;103179.22;5047923;28;20044;-65
2023/02/11 07:08:47;;;;;;;49.10;29.30;;;;;;;5.71;82.68;103189.16;5075020;28;20048;-65
2023/02/11 07:11:23;;;;;;;46.50;28.00;;;;;;;6.04;83.36;103201.78;5070406;28;20063;-66
2023/02/11 07:13:52;;;;;;;44.35;27.70;;;;;;;6.05;81.87;103198.81;5051953;28;20056;-66
2023/02/11 07:16:19;;;;;;;47.47;29.25;;;;;;;6.01;81.88;103204.97;5064535;28;20037;-66
2023/02/11 07:18:47;;;;;;;46.40;29.00;;;;;;;6.17;81.20;103213.44;5075315;28;20055;-66
2023/02/11 07:21:18;;;;;;;44.97;28.23;;;;;;;6.34;81.06;103208.25;5067221;28;20048;-67
2023/02/11 07:23:47;;;;;;;43.10;27.83;;;;;;;6.42;80.54;103210.69;5073269;28;20053;-67
2023/02/11 07:26:17;;;;;;;43.13;28.42;;;;;;;6.05;81.23;103211.66;5074127;28;20049;-67
2023/02/11 07:28:44;;;;;;;47.15;27.95;;;;;;;6.02;81.72;103209.34;5066415;28;20127;-65
2023/02/11 07:31:14;;;;;;;42.25;28.08;;;;;;;5.97;82.44;103217.41;5068490;28;20052;-66
2023/02/11 07:33:44;;;;;;;47.45;28.90;;;;;;;6.15;81.32;103225.69;5075191;28;20468;-69
2023/02/11 07:36:13;;;;;;;45.55;29.50;;;;;;;6.18;81.58;103228.81;5073410;28;20515;-67
2023/02/11 07:38:41;;;;;;;45.20;28.67;;;;;;;6.15;81.68;103223.78;5057184;28;20067;-67
2023/02/11 07:41:11;;;;;;;46.17;29.42;;;;;;;6.36;80.77;103217.88;5061100;28;20401;-66
2023/02/11 07:43:39;;;;;;;42.63;28.52;;;;;;;6.50;80.03;103230.41;5075071;28;20064;-66
2023/02/11 07:46:08;;;;;;;44.90;27.95;;;;;;;6.39;80.27;103222.09;5074510;28;20056;-66
2023/02/11 07:48:36;;;;;;;47.25;27.65;;;;;;;6.37;80.46;103224.22;5073917;28;20041;-67
2023/02/11 07:51:15;;;;;;;43.80;28.42;;;;;;;6.37;80.09;103219.59;5073040;28;20048;-65
2023/02/11 07:53:43;;;;;;;45.90;28.92;;;;;;;6.31;80.47;103222.38;5075222;28;20055;-66
2023/02/11 07:56:12;;;;;;;50.83;29.52;;;;;;;6.51;80.28;103221.13;5086249;28;20044;-65
2023/02/11 07:58:41;;;;;;;47.97;29.33;;;;;;;6.40;80.06;103219.13;5040040;28;20052;-67
2023/02/11 08:01:11;;;;;;;44.30;29.38;;;;;;;6.40;80.60;103219.13;5073884;28;20045;-66
2023/02/11 08:03:40;;;;;;;48.05;28.33;;;;;;;6.31;80.89;103216.91;5077152;28;20060;-66
2023/02/11 08:06:16;;;;;;;43.30;28.58;;;;;;;6.39;80.81;103212.00;5059508;28;20052;-66
2023/02/11 08:08:44;;;;;;;47.10;28.27;;;;;;;6.45;80.67;103208.34;5067547;28;20072;-66
2023/02/11 08:11:25;;;;;;;41.70;28.02;;;;;;;6.33;81.02;103206.59;5062119;28;20306;-66
2023/02/11 08:13:55;;;;;;;46.15;29.25;;;;;;;6.28;81.44;103217.34;5069802;28;20040;-66
2023/02/11 08:16:26;;;;;;;45.70;30.85;;;;;;;6.37;80.93;103216.84;5073859;28;20059;-67
2023/02/11 08:18:56;;;;;;;45.53;29.15;;;;;;;6.46;80.50;103214.66;5074787;28;20047;-67
2023/02/11 08:21:24;;;;;;;43.05;28.75;;;;;;;6.50;80.14;103215.88;5077311;28;20407;-66
2023/02/11 08:23:52;;;;;;;46.47;29.73;;;;;;;6.46;80.37;103220.97;5074806;28;20047;-66
2023/02/11 08:26:24;;;;;;;43.05;30.17;;;;;;;6.44;80.60;103220.38;5077400;28;20055;-65
2023/02/11 08:28:52;;;;;;;46.60;29.92;;;;;;;6.53;80.15;103212.69;5065241;28;20518;-65
2023/02/11 08:31:25;;;;;;;47.78;29.55;;;;;;;6.53;80.47;103215.44;5070354;28;20045;-66
2023/02/11 08:33:53;;;;;;;41.88;28.92;;;;;;;6.45;80.57;103223.94;5077723;28;20480;-66
2023/02/11 08:36:23;;;;;;;65.20;41.58;;;;;;;6.45;80.59;103216.56;5076076;28;20049;-65
2023/02/11 08:38:52;;;;;;;;;;;;;;;6.57;80.40;103219.41;5062554;28;20495;-65
2023/02/11 08:41:26;;;;;;;51.22;30.73;;;;;;;6.58;80.60;103210.09;5072724;28;19927;-65
2023/02/11 08:43:54;;;;;;;43.95;29.45;;;;;;;6.83;79.78;103219.94;5077291;28;20048;-65
2023/02/11 08:46:22;;;;;;;49.65;29.00;;;;;;;6.83;79.64;103219.94;5058994;28;20044;-66
2023/02/11 08:48:49;;;;;;;40.72;28.23;;;;;;;6.91;79.33;103229.78;5077570;28;20049;-65
2023/02/11 08:51:19;;;;;;;41.72;28.67;;;;;;;6.83;80.27;103235.56;5067826;28;20041;-66
2023/02/11 08:53:47;;;;;;;45.00;28.85;;;;;;;6.84;80.35;103232.59;5058671;28;20049;-67
2023/02/11 08:56:15;;;;;;;44.60;29.55;;;;;;;6.92;80.91;103231.47;5067700;28;20056;-66
2023/02/11 08:58:43;;;;;;;44.17;28.67;;;;;;;7.25;80.53;103233.78;5075906;28;20060;-65
2023/02/11 09:01:12;;;;;;;44.28;30.30;;;;;;;7.19;78.99;103226.47;5058444;28;20052;-66
2023/02/11 09:03:39;;;;;;;48.92;31.52;;;;;;;7.01;80.27;103234.72;5041406;28;20057;-67
2023/02/11 09:06:08;;;;;;;43.50;29.75;;;;;;;7.01;80.35;103241.03;5057742;28;20041;-68
2023/02/11 09:08:37;;;;;;;43.85;30.77;;;;;;;6.99;81.00;103245.06;5059427;28;20064;-67
2023/02/11 09:11:05;;;;;;;42.40;29.90;;;;;;;7.10;81.15;103245.13;5063836;28;20048;-72
2023/02/11 09:13:32;;;;;;;48.90;30.13;;;;;;;7.16;79.75;103248.88;5073295;28;20045;-66
2023/02/11 09:16:01;;;;;;;44.88;30.52;;;;;;;7.40;80.10;103242.44;5044355;28;20519;-70
2023/02/11 09:18:29;;;;;;;44.63;30.70;;;;;;;7.70;79.07;103238.66;5067672;28;20404;-69
2023/02/11 09:21:09;;;;;;;46.53;31.15;;;;;;;7.35;79.72;103237.66;5062487;28;20037;-70
2023/02/11 09:23:40;;;;;;;41.20;29.60;;;;;;;7.55;79.32;103232.75;5067614;28;20483;-69
2023/02/11 09:26:16;;;;;;;48.13;31.58;;;;;;;7.59;78.87;103233.97;5063296;28;20088;-68
2023/02/11 09:28:45;;;;;;;45.83;29.35;;;;;;;7.73;78.38;103237.34;5075253;28;20115;-67
2023/02/11 09:31:15;;;;;;;42.17;29.02;;;;;;;8.31;77.48;103237.50;5073397;28;20059;-68
2023/02/11 09:33:47;;;;;;;46.72;33.65;;;;;;;8.77;75.40;103223.81;5075712;28;20532;-69
2023/02/11 09:36:18;;;;;;;69.40;50.53;;;;;;;8.87;74.51;103226.78;5070687;28;20044;-69
2023/02/11 09:38:46;;;;;;;38.65;28.40;;;;;;;8.69;73.79;103238.72;5058324;28;20056;-70
2023/02/11 09:41:23;;;;;;;40.95;27.25;;;;;;;8.88;73.74;103234.78;5075963;28;20048;-70
2023/02/11 09:44:01;;;;;;;39.15;27.20;;;;;;;8.88;73.69;103234.78;5083140;28;20057;-70
2023/02/11 09:46:36;;;;;;;38.72;26.33;;;;;;;9.04;73.33;103245.03;5039387;28;20061;-72
2023/02/11 09:49:04;;;;;;;36.65;25.48;;;;;;;8.61;74.30;103243.75;5051045;28;20055;-71
2023/02/11 09:51:48;;;;;;;39.70;28.00;;;;;;;8.70;74.73;103234.09;5069575;28;20059;-71
2023/02/11 09:54:26;;;;;;;38.05;26.20;;;;;;;9.32;73.45;103247.00;5046120;28;20366;-71
2023/02/11 09:56:56;;;;;;;35.58;26.23;;;;;;;9.27;73.27;103235.03;5062667;28;20044;-69
2023/02/11 09:59:23;;;;;;;40.78;26.55;;;;;;;9.40;72.84;103226.50;5055244;28;20055;-68
2023/02/11 10:01:58;;;;;;;37.60;25.27;;;;;;;9.44;72.13;103233.19;5052387;28;20067;-69
2023/02/11 10:04:48;;;;;;;32.40;24.60;;;;;;;9.58;71.50;103229.91;5073290;28;20067;-71
2023/02/11 10:07:18;;;;;;;;;;;;;;;9.44;71.36;103236.78;5052364;28;20049;-69
2023/02/11 10:09:58;;;;;;;34.95;24.80;;;;;;;9.35;71.84;103240.16;5080968;28;20429;-74
2023/02/11 10:12:25;;;;;;;;;;;;;;;8.93;73.57;103247.78;5068664;28;20053;-72
2023/02/11 10:14:52;;;;;;;35.63;23.75;;;;;;;8.75;73.93;103237.75;5072880;28;20409;-73
2023/02/11 10:17:36;;;;;;;33.70;23.50;;;;;;;9.06;73.66;103245.63;5064475;28;20049;-74
2023/02/11 10:20:22;;;;;;;29.13;20.42;;;;;;;9.44;72.26;103233.19;5072748;28;20045;-72
2023/02/11 10:22:56;;;;;;;30.33;20.27;;;;;;;9.63;71.94;103229.16;5069273;28;20385;-73
2023/02/11 10:25:34;;;;;;;31.80;19.77;;;;;;;9.28;71.59;103234.81;5039841;28;20061;-75
2023/02/11 10:28:12;;;;;;;30.75;19.58;;;;;;;9.61;71.87;103232.16;5069449;28;20044;-73
2023/02/11 10:30:45;;;;;;;28.88;19.33;;;;;;;9.77;71.12;103236.03;5054268;28;20063;-75
2023/02/11 10:33:23;;;;;;;25.92;18.90;;;;;;;9.68;71.04;103215.50;5057545;28;20044;-72
2023/02/11 10:35:51;;;;;;;31.05;20.55;;;;;;;9.48;72.09;103223.38;5070564;28;20048;-71
2023/02/11 10:38:19;;;;;;;32.47;19.80;;;;;;;9.47;71.88;103232.69;5071902;28;20538;-72
2023/02/11 10:40:46;;;;;;;28.30;19.60;;;;;;;9.58;72.13;103235.41;5066912;28;20048;-71
2023/02/11 10:43:16;;;;;;;32.22;21.25;;;;;;;9.76;71.70;103237.13;5069964;28;20068;-71
2023/02/11 10:45:47;;;;;;;33.38;24.48;;;;;;;9.43;72.58;103243.34;5062967;28;20068;-71
2023/02/11 10:48:40;;;;;;;35.67;24.83;;;;;;;9.10;74.04;103251.44;5069310;28;20064;-71
2023/02/11 10:51:14;;;;;;;40.70;26.60;;;;;;;8.94;75.00;103258.53;5063696;28;20052;-69
2023/02/11 10:53:42;;;;;;;36.35;25.85;;;;;;;9.03;75.15;103259.03;5070225;28;20083;-70
2023/02/11 10:56:11;;;;;;;35.13;25.65;;;;;;;9.13;75.54;103248.25;5070381;28;20056;-70
2023/02/11 10:58:45;;;;;;;36.00;24.65;;;;;;;9.11;75.42;103236.63;5064846;28;20051;-71
2023/02/11 11:01:12;;;;;;;33.70;24.42;;;;;;;8.99;76.59;103247.66;5061491;28;20061;-70
2023/02/11 11:03:51;;;;;;;35.30;22.55;;;;;;;9.09;76.03;103245.13;5067219;28;20057;-68
2023/02/11 11:06:30;;;;;;;30.67;20.90;;;;;;;9.19;75.92;103243.69;5065510;28;20045;-70
2023/02/11 11:08:58;;;;;;;31.23;20.25;;;;;;;9.05;77.46;103243.94;5071752;28;20454;-69
2023/02/11 11:11:26;;;;;;;30.33;20.75;;;;;;;9.12;77.46;103235.56;5049607;28;20045;-69
2023/02/11 11:13:57;;;;;;;29.70;19.15;;;;;;;9.00;77.67;103230.09;5069763;28;20135;-69
2023/02/11 11:16:28;;;;;;;26.25;18.90;;;;;;;9.09;78.13;103228.66;5068472;28;20503;-72
2023/02/11 11:19:05;;;;;;;24.05;18.83;;;;;;;9.15;78.00;103235.09;5067589;28;20045;-71
2023/02/11 11:21:40;;;;;;;29.10;19.08;;;;;;;8.97;77.96;103230.59;5073086;28;20049;-71
2023/02/11 11:24:19;;;;;;;25.23;18.23;;;;;;;9.57;77.51;103217.22;5068077;28;20132;-70
2023/02/11 11:26:49;;;;;;;27.60;18.58;;;;;;;9.83;75.26;103221.31;5072415;28;20045;-70
2023/02/11 11:29:19;;;;;;;26.58;17.88;;;;;;;9.79;74.22;103222.88;5068382;28;20053;-71
2023/02/11 11:31:49;;;;;;;30.90;18.52;;;;;;;10.01;74.25;103219.16;5063829;28;20048;-71
2023/02/11 11:34:44;;;;;;;26.33;17.92;;;;;;;10.23;73.19;103213.78;5061733;28;20053;-69
2023/02/11 11:37:13;;;;;;;27.45;17.33;;;;;;;10.15;73.38;103215.03;5039531;28;20076;-70
2023/02/11 11:39:41;;;;;;;28.10;19.30;;;;;;;10.43;72.85;103213.25;5058643;28;20071;-72